sensor_id;sensor_type;location;lat;lon;timestamp;pressure;altitude;pressure_sealevel;temperature;humidity
50933;BME280;36921;49.006;9.292;2024-03-02T00:02:00;97703.34;;;5.60;100.00
50933;BME280;36921;49.006;9.292;2024-03-02T00:04:26;97696.47;;;5.44;100.00
50933;BME280;36921;49.006;9.292;2024-03-02T00:06:54;97715.66;;;5.41;100.00
50933;BME280;36921;49.006;9.292;2024-03-02T00:09:20;97714.34;;;5.31;100.00
50933;BME280;36921;49.006;9.292;2024-03-02T00:11:45;97719.47;;;5.25;100.00
50933;BME280;36921;49.006;9.292;2024-03-02T00:14:11;97688.75;;;5.00;100.00
50933;BME280;36921;49.006;9.292;2024-03-02T00:16:36;97718.78;;;5.17;100.00
50933;BME280;36921;49.006;9.292;2024-03-02T00:19:03;97722.97;;;5.26;100.00
50933;BME280;36921;49.006;9.292;2024-03-02T00:21:30;97727.09;;;5.22;100.00
50933;BME280;36921;49.006;9.292;2024-03-02T00:23:56;97720.69;;;5.23;100.00
50933;BME280;36921;49.006;9.292;2024-03-02T00:26:21;97687.38;;;5.11;100.00
50933;BME280;36921;49.006;9.292;2024-03-02T00:28:47;97715.41;;;5.36;100.00
50933;BME280;36921;49.006;9.292;2024-03-02T00:31:15;97695.53;;;5.24;100.00
50933;BME280;36921;49.006;9.292;2024-03-02T00:33:42;97721.16;;;5.33;100.00
50933;BME280;36921;49.006;9.292;2024-03-02T00:36:08;97694.91;;;5.22;100.00
50933;BME280;36921;49.006;9.292;2024-03-02T00:38:44;97718.31;;;5.35;100.00
50933;BME280;36921;49.006;9.292;2024-03-02T00:41:16;97701.91;;;5.23;100.00
50933;BME280;36921;49.006;9.292;2024-03-02T00:43:58;97729.78;;;5.28;100.00
50933;BME280;36921;49.006;9.292;2024-03-02T00:46:24;97732.06;;;5.25;100.00
50933;BME280;36921;49.006;9.292;2024-03-02T00:48:55;97732.84;;;5.19;100.00
50933;BME280;36921;49.006;9.292;2024-03-02T00:51:22;97738.22;;;5.19;100.00
50933;BME280;36921;49.006;9.292;2024-03-02T00:53:48;97733.22;;;5.16;100.00
50933;BME280;36921;49.006;9.292;2024-03-02T00:56:14;97717.66;;;5.04;100.00
50933;BME280;36921;49.006;9.292;2024-03-02T00:58:40;97717.75;;;5.18;100.00
50933;BME280;36921;49.006;9.292;2024-03-02T01:01:05;97695.31;;;5.19;100.00
50933;BME280;36921;49.006;9.292;2024-03-02T01:03:32;97691.03;;;5.31;100.00
50933;BME280;36921;49.006;9.292;2024-03-02T01:05:58;97708.31;;;5.57;100.00
50933;BME280;36921;49.006;9.292;2024-03-02T01:08:24;97706.28;;;5.65;100.00
50933;BME280;36921;49.006;9.292;2024-03-02T01:10:49;97671.22;;;5.67;100.00
50933;BME280;36921;49.006;9.292;2024-03-02T01:13:14;97688.81;;;5.83;100.00
50933;BME280;36921;49.006;9.292;2024-03-02T01:15:39;97684.44;;;5.75;100.00
50933;BME280;36921;49.006;9.292;2024-03-02T01:18:05;97702.59;;;5.73;100.00
50933;BME280;36921;49.006;9.292;2024-03-02T01:20:30;97691.56;;;5.55;100.00
50933;BME280;36921;49.006;9.292;2024-03-02T01:22:55;97666.13;;;5.37;100.00
50933;BME280;36921;49.006;9.292;2024-03-02T01:25:20;97695.75;;;5.64;100.00
50933;BME280;36921;49.006;9.292;2024-03-02T01:27:46;97707.56;;;5.76;100.00
50933;BME280;36921;49.006;9.292;2024-03-02T01:30:11;97695.59;;;5.72;100.00
50933;BME280;36921;49.006;9.292;2024-03-02T01:32:39;97704.22;;;5.61;100.00
50933;BME280;36921;49.006;9.292;2024-03-02T01:35:05;97697.88;;;5.75;100.00
50933;BME280;36921;49.006;9.292;2024-03-02T01:37:32;97662.38;;;5.80;100.00
50933;BME280;36921;49.006;9.292;2024-03-02T01:39:57;97648.97;;;5.80;100.00
50933;BME280;36921;49.006;9.292;2024-03-02T01:42:23;97678.78;;;5.98;100.00
50933;BME280;36921;49.006;9.292;2024-03-02T01:44:48;97664.72;;;5.96;100.00
50933;BME280;36921;49.006;9.292;2024-03-02T01:47:13;97664.91;;;5.95;100.00
50933;BME280;36921;49.006;9.292;2024-03-02T01:49:39;97668.81;;;5.92;100.00
50933;BME280;36921;49.006;9.292;2024-03-02T01:52:06;97679.44;;;6.00;100.00
50933;BME280;36921;49.006;9.292;2024-03-02T01:54:31;97666.75;;;5.87;100.00
50933;BME280;36921;49.006;9.292;2024-03-02T01:56:56;97673.75;;;5.88;100.00
50933;BME280;36921;49.006;9.292;2024-03-02T01:59:22;97661.72;;;5.71;100.00
50933;BME280;36921;49.006;9.292;2024-03-02T02:01:47;97667.13;;;5.78;100.00
50933;BME280;36921;49.006;9.292;2024-03-02T02:04:12;97656.41;;;5.84;100.00
50933;BME280;36921;49.006;9.292;2024-03-02T02:06:38;97661.22;;;5.96;100.00
50933;BME280;36921;49.006;9.292;2024-03-02T02:09:04;97663.91;;;5.96;100.00
50933;BME280;36921;49.006;9.292;2024-03-02T02:11:29;97653.19;;;5.96;100.00
50933;BME280;36921;49.006;9.292;2024-03-02T02:13:54;97661.44;;;6.01;100.00
50933;BME280;36921;49.006;9.292;2024-03-02T02:16:21;97677.75;;;5.99;100.00
50933;BME280;36921;49.006;9.292;2024-03-02T02:18:46;97632.00;;;5.66;100.00
50933;BME280;36921;49.006;9.292;2024-03-02T02:21:12;97651.41;;;5.75;100.00
50933;BME280;36921;49.006;9.292;2024-03-02T02:23:37;97645.59;;;5.71;100.00
50933;BME280;36921;49.006;9.292;2024-03-02T02:26:03;97639.41;;;5.70;100.00
50933;BME280;36921;49.006;9.292;2024-03-02T02:28:29;97653.09;;;5.82;100.00
50933;BME280;36921;49.006;9.292;2024-03-02T02:30:55;97660.97;;;5.90;100.00
50933;BME280;36921;49.006;9.292;2024-03-02T02:33:21;97649.78;;;5.80;100.00
50933;BME280;36921;49.006;9.292;2024-03-02T02:35:46;97648.94;;;5.73;100.00
50933;BME280;36921;49.006;9.292;2024-03-02T02:38:12;97641.03;;;5.58;100.00
50933;BME280;36921;49.006;9.292;2024-03-02T02:40:37;97643.84;;;5.43;100.00
50933;BME280;36921;49.006;9.292;2024-03-02T02:43:02;97652.91;;;5.36;100.00
50933;BME280;36921;49.006;9.292;2024-03-02T02:45:28;97629.44;;;5.10;100.00
50933;BME280;36921;49.006;9.292;2024-03-02T02:47:54;97648.91;;;5.25;100.00
50933;BME280;36921;49.006;9.292;2024-03-02T02:50:19;97636.25;;;5.12;100.00
50933;BME280;36921;49.006;9.292;2024-03-02T02:52:44;97635.22;;;5.13;100.00
50933;BME280;36921;49.006;9.292;2024-03-02T02:55:11;97647.88;;;5.19;100.00
50933;BME280;36921;49.006;9.292;2024-03-02T02:57:37;97632.53;;;5.07;100.00
50933;BME280;36921;49.006;9.292;2024-03-02T03:00:08;97653.41;;;5.18;100.00
50933;BME280;36921;49.006;9.292;2024-03-02T03:02:36;97650.47;;;5.06;100.00
50933;BME280;36921;49.006;9.292;2024-03-02T03:05:02;97646.91;;;4.99;100.00
50933;BME280;36921;49.006;9.292;2024-03-02T03:07:28;97644.38;;;4.91;100.00
50933;BME280;36921;49.006;9.292;2024-03-02T03:09:53;97646.28;;;4.97;100.00
50933;BME280;36921;49.006;9.292;2024-03-02T03:12:18;97651.44;;;4.98;100.00
50933;BME280;36921;49.006;9.292;2024-03-02T03:14:43;97647.88;;;4.91;100.00
50933;BME280;36921;49.006;9.292;2024-03-02T03:17:09;97653.09;;;4.99;100.00
50933;BME280;36921;49.006;9.292;2024-03-02T03:19:34;97655.09;;;4.91;100.00
50933;BME280;36921;49.006;9.292;2024-03-02T03:21:59;97642.09;;;4.88;100.00
50933;BME280;36921;49.006;9.292;2024-03-02T03:24:24;97657.19;;;4.95;100.00
50933;BME280;36921;49.006;9.292;2024-03-02T03:26:50;97667.03;;;4.88;100.00
50933;BME280;36921;49.006;9.292;2024-03-02T03:29:15;97668.91;;;4.88;100.00
50933;BME280;36921;49.006;9.292;2024-03-02T03:31:40;97656.63;;;4.72;100.00
50933;BME280;36921;49.006;9.292;2024-03-02T03:34:05;97664.84;;;4.70;100.00
50933;BME280;36921;49.006;9.292;2024-03-02T03:36:31;97676.19;;;4.72;100.00
50933;BME280;36921;49.006;9.292;2024-03-02T03:38:56;97662.09;;;4.64;100.00
50933;BME280;36921;49.006;9.292;2024-03-02T03:41:22;97676.25;;;4.57;100.00
50933;BME280;36921;49.006;9.292;2024-03-02T03:43:48;97663.84;;;4.50;100.00
50933;BME280;36921;49.006;9.292;2024-03-02T03:46:13;97660.16;;;4.51;100.00
50933;BME280;36921;49.006;9.292;2024-03-02T03:48:38;97684.94;;;4.59;100.00
50933;BME280;36921;49.006;9.292;2024-03-02T03:51:03;97665.75;;;4.34;100.00
50933;BME280;36921;49.006;9.292;2024-03-02T03:53:29;97648.63;;;4.07;100.00
50933;BME280;36921;49.006;9.292;2024-03-02T03:55:54;97651.81;;;3.96;100.00
50933;BME280;36921;49.006;9.292;2024-03-02T03:58:19;97676.25;;;3.93;100.00
50933;BME280;36921;49.006;9.292;2024-03-02T04:00:45;97671.00;;;3.85;100.00
50933;BME280;36921;49.006;9.292;2024-03-02T04:03:11;97664.72;;;3.92;100.00
50933;BME280;36921;49.006;9.292;2024-03-02T04:05:36;97664.28;;;4.10;100.00
50933;BME280;36921;49.006;9.292;2024-03-02T04:08:01;97651.28;;;4.07;100.00
50933;BME280;36921;49.006;9.292;2024-03-02T04:10:27;97681.56;;;4.29;100.00
50933;BME280;36921;49.006;9.292;2024-03-02T04:12:52;97673.88;;;4.20;100.00
50933;BME280;36921;49.006;9.292;2024-03-02T04:15:17;97677.69;;;4.32;100.00
50933;BME280;36921;49.006;9.292;2024-03-02T04:17:43;97678.44;;;4.26;100.00
50933;BME280;36921;49.006;9.292;2024-03-02T04:20:09;97666.78;;;4.12;100.00
50933;BME280;36921;49.006;9.292;2024-03-02T04:22:35;97680.16;;;4.12;100.00
50933;BME280;36921;49.006;9.292;2024-03-02T04:25:01;97678.75;;;4.16;100.00
50933;BME280;36921;49.006;9.292;2024-03-02T04:27:27;97682.19;;;4.10;100.00
50933;BME280;36921;49.006;9.292;2024-03-02T04:29:52;97650.94;;;3.95;100.00
50933;BME280;36921;49.006;9.292;2024-03-02T04:32:17;97684.56;;;4.20;100.00
50933;BME280;36921;49.006;9.292;2024-03-02T04:34:44;97664.63;;;4.22;100.00
50933;BME280;36921;49.006;9.292;2024-03-02T04:37:11;97678.53;;;4.32;100.00
50933;BME280;36921;49.006;9.292;2024-03-02T04:39:37;97685.22;;;4.43;100.00
50933;BME280;36921;49.006;9.292;2024-03-02T04:42:03;97662.00;;;4.29;100.00
50933;BME280;36921;49.006;9.292;2024-03-02T04:44:28;97681.25;;;4.39;100.00
50933;BME280;36921;49.006;9.292;2024-03-02T04:46:54;97678.56;;;4.39;100.00
50933;BME280;36921;49.006;9.292;2024-03-02T04:49:19;97673.59;;;4.36;100.00
50933;BME280;36921;49.006;9.292;2024-03-02T04:51:44;97678.53;;;4.32;100.00
50933;BME280;36921;49.006;9.292;2024-03-02T04:54:10;97679.28;;;4.26;100.00
50933;BME280;36921;49.006;9.292;2024-03-02T04:56:35;97676.72;;;4.18;100.00
50933;BME280;36921;49.006;9.292;2024-03-02T04:59:14;97682.72;;;4.20;100.00
50933;BME280;36921;49.006;9.292;2024-03-02T05:01:39;97682.72;;;4.20;100.00
50933;BME280;36921;49.006;9.292;2024-03-02T05:04:05;97689.19;;;4.11;100.00
50933;BME280;36921;49.006;9.292;2024-03-02T05:06:30;97695.31;;;4.05;100.00
50933;BME280;36921;49.006;9.292;2024-03-02T05:08:55;97688.59;;;4.09;100.00
50933;BME280;36921;49.006;9.292;2024-03-02T05:11:22;97678.31;;;4.12;100.00
50933;BME280;36921;49.006;9.292;2024-03-02T05:14:08;97684.94;;;4.16;100.00
50933;BME280;36921;49.006;9.292;2024-03-02T05:16:34;97675.75;;;4.04;100.00
50933;BME280;36921;49.006;9.292;2024-03-02T05:19:00;97630.84;;;3.63;100.00
50933;BME280;36921;49.006;9.292;2024-03-02T05:21:25;97681.34;;;3.88;100.00
50933;BME280;36921;49.006;9.292;2024-03-02T05:23:51;97604.16;;;3.34;100.00
50933;BME280;36921;49.006;9.292;2024-03-02T05:26:16;97644.41;;;3.62;100.00
50933;BME280;36921;49.006;9.292;2024-03-02T05:28:42;97598.72;;;3.27;100.00
50933;BME280;36921;49.006;9.292;2024-03-02T05:31:10;97694.63;;;3.81;100.00
50933;BME280;36921;49.006;9.292;2024-03-02T05:33:37;97638.06;;;3.48;100.00
50933;BME280;36921;49.006;9.292;2024-03-02T05:36:03;97678.06;;;3.71;100.00
50933;BME280;36921;49.006;9.292;2024-03-02T05:38:28;97612.84;;;3.36;100.00
50933;BME280;36921;49.006;9.292;2024-03-02T05:40:55;97575.25;;;3.07;100.00
50933;BME280;36921;49.006;9.292;2024-03-02T05:43:38;97608.22;;;3.29;100.00
50933;BME280;36921;49.006;9.292;2024-03-02T05:46:05;97650.13;;;3.59;100.00
50933;BME280;36921;49.006;9.292;2024-03-02T05:48:31;97697.91;;;3.98;100.00
50933;BME280;36921;49.006;9.292;2024-03-02T05:50:56;97699.84;;;4.04;100.00
50933;BME280;36921;49.006;9.292;2024-03-02T05:53:32;97695.75;;;4.08;100.00
50933;BME280;36921;49.006;9.292;2024-03-02T05:55:57;97691.06;;;4.10;100.00
50933;BME280;36921;49.006;9.292;2024-03-02T05:58:23;97693.59;;;4.18;100.00
50933;BME280;36921;49.006;9.292;2024-03-02T06:01:07;97692.09;;;4.31;100.00
50933;BME280;36921;49.006;9.292;2024-03-02T06:03:32;97695.59;;;4.31;100.00
50933;BME280;36921;49.006;9.292;2024-03-02T06:05:58;97691.84;;;4.26;100.00
50933;BME280;36921;49.006;9.292;2024-03-02T06:08:25;97701.41;;;4.35;100.00
50933;BME280;36921;49.006;9.292;2024-03-02T06:10:50;97699.81;;;4.41;100.00
50933;BME280;36921;49.006;9.292;2024-03-02T06:13:16;97694.91;;;4.44;100.00
50933;BME280;36921;49.006;9.292;2024-03-02T06:15:41;97700.13;;;4.52;100.00
50933;BME280;36921;49.006;9.292;2024-03-02T06:18:07;97698.53;;;4.58;100.00
50933;BME280;36921;49.006;9.292;2024-03-02T06:20:33;97697.56;;;4.66;100.00
50933;BME280;36921;49.006;9.292;2024-03-02T06:22:58;97696.16;;;4.70;100.00
50933;BME280;36921;49.006;9.292;2024-03-02T06:25:24;97703.38;;;4.69;100.00
50933;BME280;36921;49.006;9.292;2024-03-02T06:27:49;97698.84;;;4.70;100.00
50933;BME280;36921;49.006;9.292;2024-03-02T06:30:15;97692.97;;;4.59;100.00
50933;BME280;36921;49.006;9.292;2024-03-02T06:32:40;97695.59;;;4.53;100.00
50933;BME280;36921;49.006;9.292;2024-03-02T06:35:06;97697.97;;;4.41;100.00
50933;BME280;36921;49.006;9.292;2024-03-02T06:37:36;97699.34;;;4.37;100.00
50933;BME280;36921;49.006;9.292;2024-03-02T06:40:02;97699.22;;;4.24;100.00
50933;BME280;36921;49.006;9.292;2024-03-02T06:42:27;97698.09;;;4.11;100.00
50933;BME280;36921;49.006;9.292;2024-03-02T06:44:58;97697.81;;;4.06;100.00
50933;BME280;36921;49.006;9.292;2024-03-02T06:47:23;97703.88;;;4.15;100.00
50933;BME280;36921;49.006;9.292;2024-03-02T06:49:49;97695.53;;;4.25;100.00
50933;BME280;36921;49.006;9.292;2024-03-02T06:52:14;97699.94;;;4.32;100.00
50933;BME280;36921;49.006;9.292;2024-03-02T06:54:39;97707.97;;;4.54;100.00
50933;BME280;36921;49.006;9.292;2024-03-02T06:57:05;97700.22;;;4.66;100.00
50933;BME280;36921;49.006;9.292;2024-03-02T06:59:30;97702.59;;;4.75;100.00
50933;BME280;36921;49.006;9.292;2024-03-02T07:01:55;97704.44;;;5.03;100.00
50933;BME280;36921;49.006;9.292;2024-03-02T07:04:22;97700.28;;;5.28;100.00
50933;BME280;36921;49.006;9.292;2024-03-02T07:06:47;97693.19;;;5.49;100.00
50933;BME280;36921;49.006;9.292;2024-03-02T07:09:12;97695.00;;;5.83;100.00
50933;BME280;36921;49.006;9.292;2024-03-02T07:11:38;97691.63;;;6.03;100.00
50933;BME280;36921;49.006;9.292;2024-03-02T07:14:03;97691.50;;;5.83;100.00
50933;BME280;36921;49.006;9.292;2024-03-02T07:16:29;97692.78;;;5.45;100.00
50933;BME280;36921;49.006;9.292;2024-03-02T07:18:58;97680.13;;;5.39;100.00
50933;BME280;36921;49.006;9.292;2024-03-02T07:21:24;97691.75;;;5.46;100.00
50933;BME280;36921;49.006;9.292;2024-03-02T07:23:50;97688.94;;;5.68;100.00
50933;BME280;36921;49.006;9.292;2024-03-02T07:26:16;97681.47;;;5.98;100.00
50933;BME280;36921;49.006;9.292;2024-03-02T07:28:46;97684.66;;;6.42;100.00
50933;BME280;36921;49.006;9.292;2024-03-02T07:31:13;97680.38;;;6.61;100.00
50933;BME280;36921;49.006;9.292;2024-03-02T07:33:39;97688.63;;;7.06;100.00
50933;BME280;36921;49.006;9.292;2024-03-02T07:36:05;97675.72;;;7.41;100.00
50933;BME280;36921;49.006;9.292;2024-03-02T07:38:31;97682.78;;;8.00;100.00
50933;BME280;36921;49.006;9.292;2024-03-02T07:40:57;97671.75;;;8.78;100.00
50933;BME280;36921;49.006;9.292;2024-03-02T07:43:23;97656.38;;;8.79;100.00
50933;BME280;36921;49.006;9.292;2024-03-02T07:45:48;97684.75;;;8.56;100.00
50933;BME280;36921;49.006;9.292;2024-03-02T07:48:14;97679.88;;;8.72;100.00
50933;BME280;36921;49.006;9.292;2024-03-02T07:50:41;97683.97;;;8.81;100.00
50933;BME280;36921;49.006;9.292;2024-03-02T07:53:06;97677.28;;;8.59;100.00
50933;BME280;36921;49.006;9.292;2024-03-02T07:55:35;97684.63;;;9.02;100.00
50933;BME280;36921;49.006;9.292;2024-03-02T07:58:01;97678.53;;;9.31;100.00
50933;BME280;36921;49.006;9.292;2024-03-02T08:00:27;97680.63;;;8.86;100.00
50933;BME280;36921;49.006;9.292;2024-03-02T08:02:53;97695.03;;;8.41;100.00
50933;BME280;36921;49.006;9.292;2024-03-02T08:05:20;97690.03;;;8.38;100.00
50933;BME280;36921;49.006;9.292;2024-03-02T08:07:46;97687.00;;;8.28;100.00
50933;BME280;36921;49.006;9.292;2024-03-02T08:10:13;97695.66;;;8.30;100.00
50933;BME280;36921;49.006;9.292;2024-03-02T08:12:39;97685.88;;;8.49;100.00
50933;BME280;36921;49.006;9.292;2024-03-02T08:15:05;97685.84;;;8.81;100.00
50933;BME280;36921;49.006;9.292;2024-03-02T08:17:30;97685.84;;;9.49;100.00
50933;BME280;36921;49.006;9.292;2024-03-02T08:19:56;97681.88;;;9.70;100.00
50933;BME280;36921;49.006;9.292;2024-03-02T08:22:22;97678.94;;;9.72;100.00
50933;BME280;36921;49.006;9.292;2024-03-02T08:24:48;97671.25;;;9.87;100.00
50933;BME280;36921;49.006;9.292;2024-03-02T08:27:13;97667.88;;;9.92;100.00
50933;BME280;36921;49.006;9.292;2024-03-02T08:29:40;97676.34;;;9.95;100.00
50933;BME280;36921;49.006;9.292;2024-03-02T08:32:06;97670.31;;;9.63;100.00
50933;BME280;36921;49.006;9.292;2024-03-02T08:34:32;97676.91;;;9.85;100.00
50933;BME280;36921;49.006;9.292;2024-03-02T08:36:59;97667.13;;;10.03;100.00
50933;BME280;36921;49.006;9.292;2024-03-02T08:39:30;97683.03;;;10.71;100.00
50933;BME280;36921;49.006;9.292;2024-03-02T08:41:56;97678.50;;;10.95;100.00
50933;BME280;36921;49.006;9.292;2024-03-02T08:44:21;97680.81;;;10.80;100.00
50933;BME280;36921;49.006;9.292;2024-03-02T08:46:47;97668.38;;;11.26;100.00
50933;BME280;36921;49.006;9.292;2024-03-02T08:49:12;97673.91;;;11.31;100.00
50933;BME280;36921;49.006;9.292;2024-03-02T08:51:38;97669.28;;;11.79;100.00
50933;BME280;36921;49.006;9.292;2024-03-02T08:54:04;97657.44;;;12.37;100.00
50933;BME280;36921;49.006;9.292;2024-03-02T08:56:30;97662.38;;;13.75;100.00
50933;BME280;36921;49.006;9.292;2024-03-02T08:58:56;97663.25;;;15.06;100.00
50933;BME280;36921;49.006;9.292;2024-03-02T09:01:21;97653.84;;;16.40;100.00
50933;BME280;36921;49.006;9.292;2024-03-02T09:03:53;97660.31;;;18.13;88.04
50933;BME280;36921;49.006;9.292;2024-03-02T09:06:18;97654.97;;;18.47;80.00
50933;BME280;36921;49.006;9.292;2024-03-02T09:08:45;97651.13;;;18.48;76.80
50933;BME280;36921;49.006;9.292;2024-03-02T09:11:11;97651.34;;;20.32;67.26
50933;BME280;36921;49.006;9.292;2024-03-02T09:13:37;97642.59;;;22.76;58.64
50933;BME280;36921;49.006;9.292;2024-03-02T09:16:03;97636.25;;;25.42;52.00
50933;BME280;36921;49.006;9.292;2024-03-02T09:18:31;97639.66;;;26.83;45.19
50933;BME280;36921;49.006;9.292;2024-03-02T09:20:56;97649.47;;;24.84;48.78
50933;BME280;36921;49.006;9.292;2024-03-02T09:23:22;97647.03;;;25.17;46.69
50933;BME280;36921;49.006;9.292;2024-03-02T09:25:47;97638.19;;;25.41;45.59
50933;BME280;36921;49.006;9.292;2024-03-02T09:28:15;97632.56;;;26.44;44.04
50933;BME280;36921;49.006;9.292;2024-03-02T09:30:40;97638.56;;;24.79;46.19
50933;BME280;36921;49.006;9.292;2024-03-02T09:33:05;97633.88;;;23.73;46.77
50933;BME280;36921;49.006;9.292;2024-03-02T09:35:32;97626.94;;;24.42;45.96
50933;BME280;36921;49.006;9.292;2024-03-02T09:37:58;97633.00;;;23.95;46.36
50933;BME280;36921;49.006;9.292;2024-03-02T09:40:24;97632.22;;;24.03;46.89
50933;BME280;36921;49.006;9.292;2024-03-02T09:42:49;97629.47;;;23.72;46.67
50933;BME280;36921;49.006;9.292;2024-03-02T09:45:26;97623.41;;;24.67;45.21
50933;BME280;36921;49.006;9.292;2024-03-02T09:47:52;97628.06;;;24.41;46.23
50933;BME280;36921;49.006;9.292;2024-03-02T09:50:17;97623.41;;;24.50;43.23
50933;BME280;36921;49.006;9.292;2024-03-02T09:52:43;97610.56;;;24.63;43.86
50933;BME280;36921;49.006;9.292;2024-03-02T09:55:09;97621.56;;;25.41;41.94
50933;BME280;36921;49.006;9.292;2024-03-02T09:57:34;97622.91;;;24.48;42.11
50933;BME280;36921;49.006;9.292;2024-03-02T10:00:00;97626.03;;;24.81;41.83
50933;BME280;36921;49.006;9.292;2024-03-02T10:02:25;97626.81;;;23.90;43.07
50933;BME280;36921;49.006;9.292;2024-03-02T10:04:51;97628.50;;;24.17;43.34
50933;BME280;36921;49.006;9.292;2024-03-02T10:07:18;97622.22;;;23.54;44.53
50933;BME280;36921;49.006;9.292;2024-03-02T10:09:45;97624.56;;;24.92;43.44
50933;BME280;36921;49.006;9.292;2024-03-02T10:12:13;97619.50;;;25.85;43.02
50933;BME280;36921;49.006;9.292;2024-03-02T10:14:39;97608.09;;;25.31;42.84
50933;BME280;36921;49.006;9.292;2024-03-02T10:17:12;97616.97;;;23.44;44.41
50933;BME280;36921;49.006;9.292;2024-03-02T10:19:38;97617.34;;;22.47;46.69
50933;BME280;36921;49.006;9.292;2024-03-02T10:22:06;97608.09;;;23.24;45.35
50933;BME280;36921;49.006;9.292;2024-03-02T10:24:36;97612.09;;;23.40;46.16
50933;BME280;36921;49.006;9.292;2024-03-02T10:27:16;97605.03;;;24.63;44.08
50933;BME280;36921;49.006;9.292;2024-03-02T10:29:42;97600.78;;;24.83;42.98
50933;BME280;36921;49.006;9.292;2024-03-02T10:32:09;97597.84;;;25.23;42.47
50933;BME280;36921;49.006;9.292;2024-03-02T10:34:36;97595.19;;;25.44;42.23
50933;BME280;36921;49.006;9.292;2024-03-02T10:37:03;97599.50;;;25.62;41.59
50933;BME280;36921;49.006;9.292;2024-03-02T10:39:28;97589.50;;;26.47;40.61
50933;BME280;36921;49.006;9.292;2024-03-02T10:41:56;97592.63;;;25.30;41.44
50933;BME280;36921;49.006;9.292;2024-03-02T10:44:22;97590.22;;;24.50;41.64
50933;BME280;36921;49.006;9.292;2024-03-02T10:46:49;97587.56;;;24.36;41.64
50933;BME280;36921;49.006;9.292;2024-03-02T10:49:15;97580.34;;;25.95;39.83
50933;BME280;36921;49.006;9.292;2024-03-02T10:51:41;97570.94;;;26.38;40.20
50933;BME280;36921;49.006;9.292;2024-03-02T10:54:07;97573.53;;;27.76;38.76
50933;BME280;36921;49.006;9.292;2024-03-02T10:56:40;97565.59;;;27.29;38.37
50933;BME280;36921;49.006;9.292;2024-03-02T11:01:50;97557.81;;;26.48;38.40
50933;BME280;36921;49.006;9.292;2024-03-02T11:04:18;97550.13;;;26.74;38.86
50933;BME280;36921;49.006;9.292;2024-03-02T11:06:48;97551.81;;;24.83;41.85
50933;BME280;36921;49.006;9.292;2024-03-02T11:09:14;97532.34;;;26.87;39.50
50933;BME280;36921;49.006;9.292;2024-03-02T11:11:41;97550.22;;;26.99;38.93
50933;BME280;36921;49.006;9.292;2024-03-02T11:14:13;97549.69;;;26.42;39.17
50933;BME280;36921;49.006;9.292;2024-03-02T11:16:38;97544.75;;;27.23;38.08
50933;BME280;36921;49.006;9.292;2024-03-02T11:19:08;97538.72;;;26.46;37.80
50933;BME280;36921;49.006;9.292;2024-03-02T11:21:35;97539.50;;;27.55;37.99
50933;BME280;36921;49.006;9.292;2024-03-02T11:26:46;97536.81;;;27.59;36.67
50933;BME280;36921;49.006;9.292;2024-03-02T11:34:41;97517.50;;;28.64;36.05
50933;BME280;36921;49.006;9.292;2024-03-02T11:37:10;97514.28;;;28.50;36.21
50933;BME280;36921;49.006;9.292;2024-03-02T11:39:36;97509.09;;;29.04;35.27
50933;BME280;36921;49.006;9.292;2024-03-02T11:42:05;97500.84;;;27.99;35.37
50933;BME280;36921;49.006;9.292;2024-03-02T11:44:32;97486.28;;;29.78;35.00
50933;BME280;36921;49.006;9.292;2024-03-02T11:46:59;97491.41;;;29.13;35.01
50933;BME280;36921;49.006;9.292;2024-03-02T11:49:41;97489.72;;;27.87;35.67
50933;BME280;36921;49.006;9.292;2024-03-02T11:52:09;97482.66;;;26.95;35.98
50933;BME280;36921;49.006;9.292;2024-03-02T11:54:37;97468.16;;;27.35;35.99
50933;BME280;36921;49.006;9.292;2024-03-02T11:57:11;97476.38;;;27.19;36.45
50933;BME280;36921;49.006;9.292;2024-03-02T11:59:37;97475.66;;;27.22;36.04
50933;BME280;36921;49.006;9.292;2024-03-02T12:02:02;97466.44;;;26.30;37.78
50933;BME280;36921;49.006;9.292;2024-03-02T12:04:28;97465.31;;;27.43;36.54
50933;BME280;36921;49.006;9.292;2024-03-02T12:06:59;97469.00;;;26.56;37.30
50933;BME280;36921;49.006;9.292;2024-03-02T12:09:27;97444.88;;;26.69;37.12
50933;BME280;36921;49.006;9.292;2024-03-02T12:12:06;97443.91;;;26.53;36.90
50933;BME280;36921;49.006;9.292;2024-03-02T12:14:33;97450.00;;;26.25;37.58
50933;BME280;36921;49.006;9.292;2024-03-02T12:16:59;97446.63;;;25.98;37.08
50933;BME280;36921;49.006;9.292;2024-03-02T12:19:28;97452.28;;;26.65;37.22
50933;BME280;36921;49.006;9.292;2024-03-02T12:21:55;97435.22;;;26.87;36.11
50933;BME280;36921;49.006;9.292;2024-03-02T12:24:21;97446.50;;;24.88;37.85
50933;BME280;36921;49.006;9.292;2024-03-02T12:26:48;97433.97;;;23.34;40.23
50933;BME280;36921;49.006;9.292;2024-03-02T12:29:14;97424.31;;;23.80;39.68
50933;BME280;36921;49.006;9.292;2024-03-02T12:31:40;97421.50;;;23.63;40.31
50933;BME280;36921;49.006;9.292;2024-03-02T12:34:07;97435.94;;;23.03;41.11
50933;BME280;36921;49.006;9.292;2024-03-02T12:36:39;97436.75;;;22.49;41.80
50933;BME280;36921;49.006;9.292;2024-03-02T12:39:07;97420.31;;;23.29;40.77
50933;BME280;36921;49.006;9.292;2024-03-02T12:41:36;97426.75;;;24.25;40.17
50933;BME280;36921;49.006;9.292;2024-03-02T12:44:01;97414.94;;;24.81;39.84
50933;BME280;36921;49.006;9.292;2024-03-02T12:46:27;97409.03;;;25.38;38.38
50933;BME280;36921;49.006;9.292;2024-03-02T12:48:52;97399.78;;;24.96;38.78
50933;BME280;36921;49.006;9.292;2024-03-02T12:51:17;97417.66;;;24.98;39.38
50933;BME280;36921;49.006;9.292;2024-03-02T12:53:43;97404.41;;;26.35;38.51
50933;BME280;36921;49.006;9.292;2024-03-02T12:56:08;97410.56;;;26.40;37.13
50933;BME280;36921;49.006;9.292;2024-03-02T12:58:39;97405.41;;;25.46;37.30
50933;BME280;36921;49.006;9.292;2024-03-02T13:01:06;97403.13;;;26.53;37.18
50933;BME280;36921;49.006;9.292;2024-03-02T13:03:35;97388.63;;;26.14;37.94
50933;BME280;36921;49.006;9.292;2024-03-02T13:06:01;97405.47;;;26.09;37.35
50933;BME280;36921;49.006;9.292;2024-03-02T13:08:26;97406.47;;;26.59;36.93